createdAt,value
2017-09-13T00:01:25.810Z,14.30
2017-09-13T00:03:54.078Z,14.30
2017-09-13T00:06:21.603Z,14.30
2017-09-13T00:08:49.107Z,14.30
2017-09-13T00:11:17.407Z,14.20
2017-09-13T00:13:44.901Z,14.20
2017-09-13T00:16:12.462Z,14.20
2017-09-13T00:18:39.967Z,14.20
2017-09-13T00:21:08.259Z,14.20
2017-09-13T00:23:35.766Z,14.20
2017-09-13T00:26:03.291Z,14.20
2017-09-13T00:28:30.819Z,14.20
2017-09-13T00:30:59.095Z,14.10
2017-09-13T00:33:27.402Z,14.10
2017-09-13T00:35:54.906Z,14.10
2017-09-13T00:38:22.445Z,14.10
2017-09-13T00:40:49.946Z,14.10
2017-09-13T00:43:18.231Z,14.10
2017-09-13T00:45:46.503Z,14.10
2017-09-13T00:48:14.779Z,14.10
2017-09-13T00:50:43.054Z,14.00
2017-09-13T00:53:11.336Z,14.00
2017-09-13T00:55:39.611Z,14.00
2017-09-13T00:58:07.888Z,14.00
2017-09-13T01:00:36.158Z,13.90
2017-09-13T01:03:04.451Z,13.90
2017-09-13T01:05:31.967Z,13.90
2017-09-13T01:07:59.482Z,13.90
2017-09-13T01:10:26.973Z,13.90
2017-09-13T01:12:54.502Z,13.90
2017-09-13T01:15:22.007Z,13.90
2017-09-13T01:17:49.518Z,13.80
2017-09-13T01:20:17.029Z,13.80
2017-09-13T01:22:44.558Z,13.80
2017-09-13T01:25:12.066Z,13.80
2017-09-13T01:27:40.346Z,13.70
2017-09-13T01:30:08.627Z,13.70
2017-09-13T01:32:36.898Z,13.70
2017-09-13T01:35:05.179Z,13.70
2017-09-13T01:37:33.450Z,13.60
2017-09-13T01:40:01.731Z,13.60
2017-09-13T01:42:30.006Z,13.60
2017-09-13T01:44:58.307Z,13.60
2017-09-13T01:47:25.813Z,13.60
2017-09-13T01:49:53.326Z,13.50
2017-09-13T01:52:20.827Z,13.60
2017-09-13T01:54:48.346Z,13.50
2017-09-13T01:57:15.842Z,13.50
2017-09-13T01:59:43.368Z,13.50
2017-09-13T02:02:10.874Z,13.50
2017-09-13T02:04:38.398Z,13.50
2017-09-13T02:07:05.898Z,13.50
2017-09-13T02:09:33.424Z,13.40
2017-09-13T02:12:00.935Z,13.40
2017-09-13T02:14:29.230Z,13.40
2017-09-13T02:16:56.738Z,13.40
2017-09-13T02:19:24.279Z,13.40
2017-09-13T02:21:51.778Z,13.40
2017-09-13T02:24:20.120Z,13.30
2017-09-13T02:26:47.647Z,13.30
2017-09-13T02:29:15.159Z,13.30
2017-09-13T02:31:42.711Z,13.30
2017-09-13T02:34:10.225Z,13.30
2017-09-13T02:36:37.759Z,13.30
2017-09-13T02:39:06.035Z,13.20
2017-09-13T02:41:34.315Z,13.20
2017-09-13T02:44:02.582Z,13.20
2017-09-13T02:46:30.872Z,13.20
2017-09-13T02:48:59.151Z,13.20
2017-09-13T02:51:27.442Z,13.10
2017-09-13T02:53:54.953Z,13.10
2017-09-13T02:56:22.482Z,13.10
2017-09-13T02:58:50.002Z,13.10
2017-09-13T03:01:18.282Z,13.10
2017-09-13T03:03:46.545Z,13.10
2017-09-13T03:06:14.835Z,13.00
2017-09-13T03:08:43.107Z,13.00
2017-09-13T03:11:11.402Z,13.00
2017-09-13T03:13:38.897Z,13.00
2017-09-13T03:16:06.423Z,13.00
2017-09-13T03:18:33.930Z,13.00
2017-09-13T03:21:01.448Z,13.00
2017-09-13T03:23:28.946Z,13.00
2017-09-13T03:25:56.461Z,12.90
2017-09-13T03:28:23.995Z,12.90
2017-09-13T03:30:51.493Z,12.90
2017-09-13T03:33:19.010Z,12.90
2017-09-13T03:35:47.287Z,12.90
2017-09-13T03:38:15.568Z,12.90
2017-09-13T03:40:43.838Z,12.80
2017-09-13T03:43:12.118Z,12.80
2017-09-13T03:45:40.394Z,12.80
2017-09-13T03:48:08.695Z,12.80
2017-09-13T03:50:36.198Z,12.80
2017-09-13T03:53:03.715Z,12.80
2017-09-13T03:55:31.214Z,12.80
2017-09-13T03:57:58.741Z,12.70
2017-09-13T04:00:26.246Z,12.70
2017-09-13T04:02:53.769Z,12.70
2017-09-13T04:05:21.284Z,12.70
2017-09-13T04:07:49.562Z,12.70
2017-09-13T04:10:17.838Z,12.60
2017-09-13T04:12:46.119Z,12.60
2017-09-13T04:15:14.390Z,12.60
2017-09-13T04:17:42.670Z,12.60
2017-09-13T04:20:10.942Z,12.60
2017-09-13T04:22:39.248Z,12.60
2017-09-13T04:25:06.767Z,12.50
2017-09-13T04:27:34.266Z,12.50
2017-09-13T04:30:01.794Z,12.50
2017-09-13T04:32:30.063Z,12.50
2017-09-13T04:34:57.587Z,12.40
2017-09-13T04:37:25.083Z,12.40
2017-09-13T04:39:52.612Z,12.40
2017-09-13T04:42:20.112Z,12.40
2017-09-13T04:44:47.668Z,12.40
2017-09-13T04:47:15.948Z,12.30
2017-09-13T04:49:44.332Z,12.30
2017-09-13T04:52:12.607Z,12.30
2017-09-13T04:54:40.887Z,12.30
2017-09-13T04:57:09.145Z,12.30
2017-09-13T04:59:36.720Z,12.20
2017-09-13T05:02:04.992Z,12.20
2017-09-13T05:04:33.271Z,12.20
2017-09-13T05:07:00.782Z,12.20
2017-09-13T05:09:28.330Z,12.20
2017-09-13T05:11:55.834Z,12.20
2017-09-13T05:14:23.346Z,12.20
2017-09-13T05:16:50.888Z,12.20
2017-09-13T05:19:18.427Z,12.20
2017-09-13T05:21:46.803Z,12.20
2017-09-13T05:24:15.102Z,12.20
2017-09-13T05:26:42.614Z,12.20
2017-09-13T05:29:10.127Z,12.20
2017-09-13T05:31:37.713Z,12.20
2017-09-13T05:34:05.218Z,12.20
2017-09-13T05:36:33.523Z,12.20
2017-09-13T05:39:01.033Z,12.20
2017-09-13T05:41:28.567Z,12.20
2017-09-13T05:43:56.096Z,12.20
2017-09-13T05:46:23.624Z,12.30
2017-09-13T05:48:51.130Z,12.30
2017-09-13T05:51:18.655Z,12.30
2017-09-13T05:53:46.930Z,12.40
2017-09-13T05:56:15.226Z,12.50
2017-09-13T05:58:42.731Z,12.50
2017-09-13T06:01:10.251Z,12.60
2017-09-13T06:03:37.749Z,12.70
2017-09-13T06:06:05.300Z,12.80
2017-09-13T06:08:32.827Z,12.80
2017-09-13T06:11:00.362Z,12.90
2017-09-13T06:13:28.638Z,13.10
2017-09-13T06:17:20.922Z,13.10
2017-09-13T06:19:48.438Z,13.20
2017-09-13T06:22:16.719Z,13.30
2017-09-13T06:24:44.998Z,13.40
2017-09-13T06:27:13.299Z,13.40
2017-09-13T06:29:40.815Z,13.40
2017-09-13T06:32:08.494Z,13.50
2017-09-13T06:34:36.759Z,13.60
2017-09-13T06:37:04.286Z,13.60
2017-09-13T06:39:31.794Z,13.70
2017-09-13T06:42:00.086Z,13.80
2017-09-13T06:44:27.590Z,13.80
2017-09-13T06:46:55.113Z,13.90
2017-09-13T06:49:22.619Z,14.00
2017-09-13T06:51:50.137Z,14.00
2017-09-13T06:54:17.638Z,14.10
2017-09-13T06:56:45.175Z,14.20
2017-09-13T06:59:12.678Z,14.20
2017-09-13T07:01:40.954Z,14.30
2017-09-13T07:04:09.234Z,14.40
2017-09-13T07:06:37.507Z,14.50
2017-09-13T07:09:05.811Z,14.50
2017-09-13T07:11:33.329Z,14.50
2017-09-13T07:14:00.855Z,14.50
2017-09-13T07:16:28.363Z,14.60
2017-09-13T07:18:56.646Z,14.70
2017-09-13T07:21:24.913Z,14.70
2017-09-13T07:23:52.443Z,14.70
2017-09-13T07:26:19.954Z,14.80
2017-09-13T07:28:47.480Z,14.90
2017-09-13T07:31:14.982Z,14.90
2017-09-13T07:33:42.523Z,15.00
2017-09-13T07:36:10.038Z,15.10
2017-09-13T07:38:37.563Z,15.10
2017-09-13T07:41:05.075Z,15.20
2017-09-13T07:43:32.599Z,15.30
2017-09-13T07:46:00.097Z,15.30
2017-09-13T07:48:27.621Z,15.40
2017-09-13T07:50:55.145Z,15.50
2017-09-13T07:53:22.670Z,15.50
2017-09-13T07:55:50.175Z,15.60
2017-09-13T07:58:17.699Z,15.60
2017-09-13T08:00:45.962Z,15.70
2017-09-13T08:03:13.466Z,15.70
2017-09-13T08:05:40.999Z,15.70
2017-09-13T08:08:09.275Z,15.80
2017-09-13T08:10:37.571Z,15.80
2017-09-13T08:13:05.075Z,15.80
2017-09-13T08:15:32.594Z,15.90
2017-09-13T08:18:00.111Z,15.90
2017-09-13T08:20:27.641Z,16.00
2017-09-13T08:22:55.139Z,16.00
2017-09-13T08:25:23.427Z,16.10
2017-09-13T08:27:51.697Z,16.20
2017-09-13T08:30:19.991Z,16.20
2017-09-13T08:32:47.519Z,16.20
2017-09-13T08:35:15.035Z,16.30
2017-09-13T08:37:42.556Z,16.30
2017-09-13T08:40:10.847Z,16.40
2017-09-13T08:42:38.357Z,16.40
2017-09-13T08:45:05.879Z,16.40
2017-09-13T08:47:33.390Z,16.50
2017-09-13T08:50:00.920Z,16.50
2017-09-13T08:52:28.425Z,16.50
2017-09-13T08:54:56.705Z,16.60
2017-09-13T08:57:24.974Z,16.60
2017-09-13T08:59:53.294Z,16.70
2017-09-13T09:02:20.815Z,16.70
2017-09-13T09:04:49.114Z,16.80
2017-09-13T09:07:16.627Z,16.70
2017-09-13T09:09:44.138Z,16.80
2017-09-13T09:12:11.666Z,16.90
2017-09-13T09:14:39.220Z,17.00
2017-09-13T09:17:06.755Z,17.00
2017-09-13T09:19:34.262Z,17.10
2017-09-13T09:22:01.903Z,17.10
2017-09-13T09:24:30.182Z,17.30
2017-09-13T09:26:58.543Z,17.40
2017-09-13T09:29:26.042Z,17.40
2017-09-13T09:31:53.583Z,17.50
2017-09-13T09:34:21.107Z,17.60
2017-09-13T09:36:48.655Z,17.70
2017-09-13T09:39:16.163Z,17.70
2017-09-13T09:41:43.687Z,17.80
2017-09-13T09:44:11.199Z,17.90
2017-09-13T09:46:38.728Z,18.00
2017-09-13T09:49:06.242Z,18.00
2017-09-13T09:51:33.778Z,18.10
2017-09-13T09:54:01.278Z,18.20
2017-09-13T09:56:28.797Z,18.20
2017-09-13T09:58:56.314Z,18.30
2017-09-13T10:01:23.840Z,18.40
2017-09-13T10:03:51.347Z,18.50
2017-09-13T10:06:19.647Z,18.70
2017-09-13T10:08:47.156Z,18.70
2017-09-13T10:11:14.699Z,18.80
2017-09-13T10:13:42.198Z,18.80
2017-09-13T10:16:10.485Z,18.90
2017-09-13T10:18:38.784Z,19.00
2017-09-13T10:21:06.338Z,19.00
2017-09-13T10:23:33.863Z,19.00
2017-09-13T10:26:01.358Z,19.10
2017-09-13T10:28:28.879Z,19.00
2017-09-13T10:30:56.385Z,19.00
2017-09-13T10:33:23.907Z,18.90
2017-09-13T10:35:51.420Z,18.90
2017-09-13T10:38:18.946Z,18.80
2017-09-13T10:40:46.454Z,18.80
2017-09-13T10:43:13.975Z,18.70
2017-09-13T10:45:41.469Z,18.70
2017-09-13T10:48:09.778Z,18.60
2017-09-13T10:50:37.279Z,18.60
2017-09-13T10:53:04.856Z,18.60
2017-09-13T10:55:32.359Z,18.60
2017-09-13T10:58:00.660Z,18.60
2017-09-13T11:00:28.162Z,18.60
2017-09-13T11:02:55.688Z,18.60
2017-09-13T11:05:23.200Z,18.60
2017-09-13T11:07:50.748Z,18.60
2017-09-13T11:10:18.329Z,18.60
2017-09-13T11:12:46.626Z,18.70
2017-09-13T11:15:14.919Z,18.70
2017-09-13T11:17:42.436Z,18.80
2017-09-13T11:20:10.002Z,18.80
2017-09-13T11:22:37.508Z,18.90
2017-09-13T11:25:05.050Z,18.90
2017-09-13T11:27:32.552Z,19.00
2017-09-13T11:30:00.083Z,19.10
2017-09-13T11:32:27.611Z,19.20
2017-09-13T11:34:55.910Z,19.30
2017-09-13T11:37:23.426Z,19.30
2017-09-13T11:39:50.970Z,19.30
2017-09-13T11:42:18.483Z,19.30
2017-09-13T11:44:46.010Z,19.40
2017-09-13T11:47:13.526Z,19.50
2017-09-13T11:49:41.060Z,19.60
2017-09-13T11:52:08.562Z,19.70
2017-09-13T11:54:36.078Z,19.70
2017-09-13T11:57:03.626Z,19.80
2017-09-13T11:59:31.175Z,19.80
2017-09-13T12:01:59.446Z,19.90
2017-09-13T12:04:26.972Z,19.90
2017-09-13T12:06:54.486Z,19.90
2017-09-13T12:09:22.779Z,20.10
2017-09-13T12:11:50.269Z,20.10
2017-09-13T12:14:17.793Z,20.20
2017-09-13T12:16:45.354Z,20.20
2017-09-13T12:19:12.875Z,20.30
2017-09-13T12:21:40.395Z,20.40
2017-09-13T12:24:07.903Z,20.50
2017-09-13T12:26:36.197Z,20.60
2017-09-13T12:29:04.466Z,20.60
2017-09-13T12:31:32.752Z,20.70
2017-09-13T12:34:00.250Z,20.60
2017-09-13T12:36:27.766Z,20.80
2017-09-13T12:38:56.045Z,20.80
2017-09-13T12:41:23.646Z,20.80
2017-09-13T12:43:51.142Z,21.00
2017-09-13T12:46:18.698Z,21.00
2017-09-13T12:48:46.210Z,21.10
2017-09-13T12:51:14.503Z,21.20
2017-09-13T12:53:42.018Z,21.10
2017-09-13T12:56:09.535Z,21.20
2017-09-13T12:58:37.052Z,21.30
2017-09-13T13:01:05.349Z,21.30
2017-09-13T13:03:32.867Z,21.30
2017-09-13T13:06:00.439Z,21.40
2017-09-13T13:08:27.935Z,21.30
2017-09-13T13:10:55.457Z,21.30
2017-09-13T13:13:23.022Z,21.20
2017-09-13T13:15:50.543Z,21.20
2017-09-13T13:18:18.169Z,21.20
2017-09-13T13:20:45.691Z,21.20
2017-09-13T13:23:13.262Z,21.20
2017-09-13T13:25:41.528Z,21.20
2017-09-13T13:28:09.061Z,21.20
2017-09-13T13:30:36.582Z,21.20
2017-09-13T13:33:04.118Z,21.20
2017-09-13T13:35:31.658Z,21.10
2017-09-13T13:37:59.199Z,21.10
2017-09-13T13:40:26.742Z,21.00
2017-09-13T13:42:54.252Z,21.00
2017-09-13T13:45:22.551Z,20.90
2017-09-13T13:47:50.084Z,20.90
2017-09-13T13:50:17.605Z,20.90
2017-09-13T13:52:45.139Z,20.90
2017-09-13T13:55:12.639Z,20.90
2017-09-13T13:57:40.159Z,20.80
2017-09-13T14:00:07.708Z,20.90
2017-09-13T14:02:35.234Z,20.90
2017-09-13T14:05:02.744Z,20.90
2017-09-13T14:07:30.327Z,20.90
2017-09-13T14:09:57.852Z,20.90
2017-09-13T14:12:25.390Z,20.90
2017-09-13T14:14:53.676Z,20.90
2017-09-13T14:17:21.205Z,20.90
2017-09-13T14:19:48.731Z,20.90
2017-09-13T14:22:16.237Z,21.00
2017-09-13T14:24:43.865Z,21.00
2017-09-13T14:27:11.507Z,20.90
2017-09-13T14:29:39.040Z,20.90
2017-09-13T14:32:06.564Z,20.90
2017-09-13T14:34:34.096Z,20.90
2017-09-13T14:37:01.612Z,20.90
2017-09-13T14:39:30.026Z,20.80
2017-09-13T14:41:57.557Z,20.80
2017-09-13T14:44:25.134Z,20.80
2017-09-13T14:46:52.778Z,20.80
2017-09-13T14:49:20.438Z,20.80
2017-09-13T14:51:47.967Z,20.70
2017-09-13T14:54:15.491Z,20.70
2017-09-13T14:56:42.998Z,20.70
2017-09-13T14:59:11.274Z,20.70
2017-09-13T15:01:38.786Z,20.70
2017-09-13T15:04:06.290Z,20.60
2017-09-13T15:06:33.909Z,20.60
2017-09-13T15:09:01.583Z,20.60
2017-09-13T15:11:29.118Z,20.60
2017-09-13T15:13:56.798Z,20.60
2017-09-13T15:16:24.382Z,20.50
2017-09-13T15:18:51.886Z,20.50
2017-09-13T15:21:19.470Z,20.50
2017-09-13T15:23:46.976Z,20.50
2017-09-13T15:26:15.408Z,20.40
2017-09-13T15:28:42.932Z,20.40
2017-09-13T15:31:11.349Z,20.30
2017-09-13T15:33:38.886Z,20.30
2017-09-13T15:36:06.536Z,20.30
2017-09-13T15:38:34.063Z,20.30
2017-09-13T15:41:01.600Z,20.30
2017-09-13T15:43:29.249Z,20.30
2017-09-13T15:45:56.815Z,20.20
2017-09-13T15:48:24.333Z,20.20
2017-09-13T15:50:52.624Z,20.10
2017-09-13T15:53:20.147Z,20.10
2017-09-13T15:55:47.711Z,20.10
2017-09-13T15:58:15.263Z,20.20
2017-09-13T16:00:42.799Z,20.00
2017-09-13T16:03:10.445Z,19.80
2017-09-13T16:05:38.091Z,19.70
2017-09-13T16:08:05.741Z,19.50
2017-09-13T16:10:33.324Z,19.40
2017-09-13T16:13:00.823Z,19.40
2017-09-13T16:15:28.386Z,19.40
2017-09-13T16:17:56.028Z,19.50
2017-09-13T16:20:23.776Z,19.30
2017-09-13T16:22:51.336Z,19.30
2017-09-13T16:25:18.858Z,19.30
2017-09-13T16:27:47.292Z,19.20
2017-09-13T16:30:14.840Z,19.10
2017-09-13T16:32:42.382Z,19.30
2017-09-13T16:35:10.024Z,19.40
2017-09-13T16:37:37.583Z,19.50
2017-09-13T16:40:05.092Z,19.60
2017-09-13T16:42:32.762Z,19.70
2017-09-13T16:45:00.433Z,19.80
2017-09-13T16:47:28.754Z,19.80
2017-09-13T16:49:56.279Z,19.80
2017-09-13T16:52:23.949Z,19.80
2017-09-13T16:54:51.630Z,19.90
2017-09-13T16:57:19.328Z,19.90
2017-09-13T16:59:46.872Z,20.00
2017-09-13T17:02:14.527Z,20.00
2017-09-13T17:04:42.202Z,20.00
2017-09-13T17:07:09.737Z,20.00
2017-09-13T17:09:37.394Z,20.10
2017-09-13T17:12:05.098Z,20.10
2017-09-13T17:14:32.774Z,20.10
2017-09-13T17:17:00.472Z,20.10
2017-09-13T17:19:28.150Z,20.10
2017-09-13T17:21:55.692Z,20.10
2017-09-13T17:24:23.249Z,20.10
2017-09-13T17:26:50.764Z,20.10
2017-09-13T17:29:18.290Z,20.10
2017-09-13T17:31:46.585Z,20.10
2017-09-13T17:34:15.052Z,20.10
2017-09-13T17:36:42.582Z,20.10
2017-09-13T17:39:10.096Z,20.10
2017-09-13T17:41:38.404Z,20.00
2017-09-13T17:44:05.942Z,20.00
2017-09-13T17:46:33.504Z,20.00
2017-09-13T17:49:01.031Z,20.00
2017-09-13T17:51:29.308Z,20.00
2017-09-13T17:53:56.868Z,20.00
2017-09-13T17:56:24.641Z,20.00
2017-09-13T17:58:52.190Z,20.00
2017-09-13T18:01:19.699Z,20.00
2017-09-13T18:03:47.230Z,19.90
2017-09-13T18:06:14.735Z,19.90
2017-09-13T18:08:42.422Z,19.90
2017-09-13T18:11:09.967Z,19.90
2017-09-13T18:13:38.267Z,19.90
2017-09-13T18:16:05.940Z,19.90
2017-09-13T18:18:33.491Z,19.90
2017-09-13T18:21:01.006Z,19.90
2017-09-13T18:23:28.558Z,19.90
2017-09-13T18:25:56.164Z,19.90
2017-09-13T18:28:23.744Z,19.90
2017-09-13T18:30:51.294Z,19.90
2017-09-13T18:33:18.809Z,19.90
2017-09-13T18:35:46.346Z,19.80
2017-09-13T18:38:15.882Z,19.80
2017-09-13T18:40:43.521Z,19.80
2017-09-13T18:43:11.346Z,19.80
2017-09-13T18:45:38.910Z,19.80
2017-09-13T18:48:06.591Z,19.70
2017-09-13T18:50:34.334Z,19.70
2017-09-13T18:53:01.889Z,19.70
2017-09-13T18:55:30.159Z,19.70
2017-09-13T18:57:58.446Z,19.60
2017-09-13T19:00:25.958Z,19.60
2017-09-13T19:02:53.520Z,19.60
2017-09-13T19:05:21.035Z,19.60
2017-09-13T19:07:48.732Z,19.60
2017-09-13T19:10:16.266Z,19.60
2017-09-13T19:12:44.735Z,19.60
2017-09-13T19:15:13.211Z,19.50
2017-09-13T19:17:40.803Z,19.50
2017-09-13T19:20:08.310Z,19.50
2017-09-13T19:22:35.879Z,19.50
2017-09-13T19:25:04.504Z,19.40
2017-09-13T19:27:32.060Z,19.40
2017-09-13T19:29:59.587Z,19.40
2017-09-13T19:32:27.262Z,19.40
2017-09-13T19:34:54.812Z,19.40
2017-09-13T19:37:22.311Z,19.40
2017-09-13T19:39:49.831Z,19.40
2017-09-13T19:42:17.342Z,19.40
2017-09-13T19:44:44.878Z,19.40
2017-09-13T19:47:12.394Z,19.30
2017-09-13T19:49:40.683Z,19.30
2017-09-13T19:52:08.982Z,19.30
2017-09-13T19:54:36.518Z,19.30
2017-09-13T19:57:04.803Z,19.30
2017-09-13T19:59:32.341Z,19.30
2017-09-13T20:01:59.865Z,19.20
2017-09-13T20:04:27.392Z,19.20
2017-09-13T20:06:54.907Z,19.20
2017-09-13T20:09:22.484Z,19.20
2017-09-13T20:11:49.987Z,19.20
2017-09-13T20:14:17.513Z,19.20
2017-09-13T20:16:45.031Z,19.20
2017-09-13T20:19:12.562Z,19.20
2017-09-13T20:21:40.124Z,19.20
2017-09-13T20:24:07.657Z,19.20
2017-09-13T20:26:35.166Z,19.20
2017-09-13T20:29:02.707Z,19.30
2017-09-13T20:31:30.218Z,19.30
2017-09-13T20:33:58.503Z,19.30
2017-09-13T20:36:26.779Z,19.30
2017-09-13T20:38:55.096Z,19.30
2017-09-13T20:41:22.619Z,19.30
2017-09-13T20:43:50.884Z,19.40
2017-09-13T20:46:19.195Z,19.30
2017-09-13T20:48:46.719Z,19.30
2017-09-13T20:51:15.043Z,19.30
2017-09-13T20:53:43.511Z,19.40
2017-09-13T20:56:11.038Z,19.40
2017-09-13T20:58:38.555Z,19.40
2017-09-13T21:01:06.091Z,19.50
2017-09-13T21:03:33.611Z,19.40
2017-09-13T21:06:01.139Z,19.50
2017-09-13T21:08:28.651Z,19.50
2017-09-13T21:10:56.954Z,19.50
2017-09-13T21:13:24.645Z,19.50
2017-09-13T21:15:52.175Z,19.50
2017-09-13T21:18:19.691Z,19.50
2017-09-13T21:20:47.224Z,19.50
2017-09-13T21:23:15.032Z,19.50
2017-09-13T21:25:42.578Z,19.60
2017-09-13T21:28:10.132Z,19.60
2017-09-13T21:30:37.664Z,19.60
2017-09-13T21:33:05.958Z,19.50
2017-09-13T21:35:34.318Z,19.50
2017-09-13T21:38:01.926Z,19.50
2017-09-13T21:40:31.647Z,19.50
2017-09-13T21:42:59.212Z,19.50
2017-09-13T21:45:30.207Z,19.50
2017-09-13T21:47:57.736Z,19.50
2017-09-13T21:50:25.287Z,19.50
2017-09-13T21:52:52.818Z,19.50
2017-09-13T21:55:20.395Z,19.50
2017-09-13T21:57:47.924Z,19.50
2017-09-13T22:00:15.475Z,19.50
2017-09-13T22:02:46.598Z,19.50
2017-09-13T22:05:14.916Z,19.40
2017-09-13T22:07:42.436Z,19.40
2017-09-13T22:10:10.808Z,19.40
2017-09-13T22:12:38.331Z,19.40
2017-09-13T22:15:05.859Z,19.40
2017-09-13T22:17:33.392Z,19.40
2017-09-13T22:20:00.928Z,19.40
2017-09-13T22:22:28.456Z,19.30
2017-09-13T22:24:55.991Z,19.30
2017-09-13T22:27:23.536Z,19.30
2017-09-13T22:29:51.846Z,19.30
2017-09-13T22:32:19.393Z,19.30
2017-09-13T22:34:46.960Z,19.30
2017-09-13T22:37:14.494Z,19.30
2017-09-13T22:39:42.065Z,19.30
2017-09-13T22:42:09.633Z,19.30
2017-09-13T22:44:37.160Z,19.30
2017-09-13T22:47:04.684Z,19.30
2017-09-13T22:49:32.229Z,19.30
2017-09-13T22:51:59.736Z,19.20
2017-09-13T22:54:27.271Z,19.20
2017-09-13T22:56:54.806Z,19.20
2017-09-13T22:59:22.353Z,19.20
2017-09-13T23:01:49.876Z,19.10
2017-09-13T23:04:17.425Z,19.10
2017-09-13T23:06:44.959Z,19.10
2017-09-13T23:09:12.485Z,19.00
2017-09-13T23:11:40.013Z,19.00
2017-09-13T23:14:07.552Z,18.90
2017-09-13T23:16:35.103Z,18.90
2017-09-13T23:19:02.627Z,18.90
2017-09-13T23:21:30.933Z,18.90
2017-09-13T23:23:58.456Z,18.80
2017-09-13T23:26:25.998Z,18.80
2017-09-13T23:28:53.524Z,18.80
2017-09-13T23:31:21.056Z,18.80
2017-09-13T23:33:48.564Z,18.80
2017-09-13T23:36:16.097Z,18.80
2017-09-13T23:38:43.630Z,18.80
2017-09-13T23:41:11.190Z,18.70
2017-09-13T23:43:38.702Z,18.70
2017-09-13T23:46:06.236Z,18.70
2017-09-13T23:48:33.799Z,18.70
2017-09-13T23:51:01.349Z,18.70
2017-09-13T23:53:29.686Z,18.60
2017-09-13T23:55:57.208Z,18.60
2017-09-13T23:58:24.717Z,18.60
